Time;durP1;ratioP1;P1;durP2;ratioP2;P2;SDS_P1;SDS_P2;PMS_P1;PMS_P2;Temp;Humidity;BMP_temperature;BMP_pressure;BME280_temperature;BME280_humidity;BME280_pressure;Samples;Min_cycle;Max_cycle;Signal;HPM_P1;HPM_P2
2022/10/28 00:00:17;;;;;;;53.92;29.73;;;;;;;12.75;100.00;101645.50;5073279;28;20031;-51
2022/10/28 00:02:42;;;;;;;59.80;29.27;;;;;;;12.69;100.00;101650.47;5072650;28;20058;-50
2022/10/28 00:05:08;;;;;;;67.78;31.75;;;;;;;12.70;100.00;101648.78;5073014;28;20041;-48
2022/10/28 00:07:33;;;;;;;62.22;31.48;;;;;;;12.67;100.00;101654.72;5072966;28;20107;-51
2022/10/28 00:09:58;;;;;;;71.53;34.70;;;;;;;12.74;100.00;101645.47;5072826;28;20114;-48
2022/10/28 00:12:24;;;;;;;64.63;32.72;;;;;;;12.74;100.00;101645.47;5072884;28;20024;-49
2022/10/28 00:14:49;;;;;;;61.90;30.65;;;;;;;12.68;100.00;101644.44;5073047;28;20025;-47
2022/10/28 00:17:14;;;;;;;64.57;31.35;;;;;;;12.63;100.00;101640.81;5072869;28;20029;-51
2022/10/28 00:19:39;;;;;;;63.28;31.65;;;;;;;12.63;100.00;101650.28;5072485;28;20043;-51
2022/10/28 00:22:05;;;;;;;60.20;31.45;;;;;;;12.54;100.00;101645.66;5072253;28;20036;-50
2022/10/28 00:24:30;;;;;;;68.53;32.08;;;;;;;12.51;100.00;101651.63;5073105;28;20037;-51
2022/10/28 00:26:55;;;;;;;72.25;32.70;;;;;;;12.50;100.00;101643.81;5072796;28;20484;-51
2022/10/28 00:29:21;;;;;;;69.00;32.05;;;;;;;12.43;100.00;101645.28;5072356;28;20024;-49
2022/10/28 00:31:47;;;;;;;67.88;32.95;;;;;;;12.43;100.00;101642.69;5072444;28;20032;-49
2022/10/28 00:34:15;;;;;;;68.97;31.30;;;;;;;12.42;100.00;101642.66;5072704;28;20024;-50
2022/10/28 00:36:42;;;;;;;73.28;32.83;;;;;;;12.39;100.00;101643.41;5072093;28;20103;-50
2022/10/28 00:39:12;;;;;;;75.13;35.35;;;;;;;12.47;100.00;101638.50;5072674;28;20016;-50
2022/10/28 00:41:39;;;;;;;73.53;33.67;;;;;;;12.50;100.00;101644.69;5072820;28;20016;-50
2022/10/28 00:44:39;;;;;;;64.88;31.38;;;;;;;12.43;100.00;101640.09;5071890;28;20388;-51
2022/10/28 00:47:50;;;;;;;65.75;33.75;;;;;;;12.41;100.00;101638.28;5072424;28;20036;-50
2022/10/28 00:50:24;;;;;;;71.47;33.53;;;;;;;12.39;100.00;101640.84;5072039;28;20488;-50
2022/10/28 00:52:55;;;;;;;73.82;31.50;;;;;;;12.29;100.00;101633.59;5072503;28;20036;-48
2022/10/28 00:55:21;;;;;;;60.38;33.13;;;;;;;12.31;100.00;101629.34;5072665;28;20168;-49
2022/10/28 00:57:47;;;;;;;68.40;32.55;;;;;;;12.30;100.00;101620.75;5076979;28;20464;-48
2022/10/28 01:00:13;;;;;;;65.00;31.90;;;;;;;12.16;100.00;101615.06;5079195;28;20017;-49
2022/10/28 01:02:45;;;;;;;70.07;33.33;;;;;;;12.17;100.00;101610.78;5079028;28;20383;-49
2022/10/28 01:05:13;;;;;;;61.17;31.00;;;;;;;12.13;100.00;101612.38;5078712;28;20036;-47
2022/10/28 01:07:39;;;;;;;70.55;31.75;;;;;;;12.11;100.00;101610.56;5078725;28;20024;-49
2022/10/28 01:10:05;;;;;;;64.10;31.45;;;;;;;12.08;100.00;101605.28;5079028;28;20028;-48
2022/10/28 01:12:44;;;;;;;64.97;31.83;;;;;;;12.02;100.00;101608.53;5078607;28;20029;-49
2022/10/28 01:15:22;;;;;;;66.50;32.00;;;;;;;12.02;100.00;101604.25;5078954;28;20027;-51
2022/10/28 01:17:59;;;;;;;67.10;32.47;;;;;;;11.96;100.00;101598.00;5079067;28;20029;-49
2022/10/28 01:20:51;;;;;;;68.28;32.63;;;;;;;12.00;100.00;101599.84;5078332;28;20392;-47
2022/10/28 01:23:22;;;;;;;60.65;32.80;;;;;;;11.95;100.00;101606.53;5079190;28;20024;-47
2022/10/28 01:26:15;;;;;;;65.45;34.70;;;;;;;11.98;100.00;101604.97;5078480;28;20115;-50
2022/10/28 01:29:09;;;;;;;68.60;32.83;;;;;;;11.92;100.00;101606.41;5078560;28;20490;-49
2022/10/28 01:31:56;;;;;;;69.70;33.55;;;;;;;11.95;100.00;101598.78;5078787;28;20488;-51
2022/10/28 01:34:57;;;;;;;72.43;33.50;;;;;;;11.94;100.00;101597.00;5078392;28;20036;-47
2022/10/28 01:37:37;;;;;;;68.80;33.90;;;;;;;11.92;100.00;101598.66;5067995;28;20110;-50
2022/10/28 01:40:30;;;;;;;64.60;32.85;;;;;;;11.88;100.00;101591.59;5078500;28;20036;-47
2022/10/28 01:43:09;;;;;;;69.32;33.80;;;;;;;11.84;100.00;101588.06;5078562;28;20472;-51
2022/10/28 01:45:41;;;;;;;68.97;32.45;;;;;;;11.81;100.00;101595.69;5078563;28;20044;-47
2022/10/28 01:48:28;;;;;;;68.38;31.25;;;;;;;11.73;100.00;101590.22;5078091;28;20548;-49
2022/10/28 01:51:10;;;;;;;65.30;32.85;;;;;;;11.76;100.00;101590.38;5078570;28;20453;-49
2022/10/28 01:53:40;;;;;;;76.00;33.13;;;;;;;11.69;100.00;101590.94;5078097;28;20025;-47
2022/10/28 01:56:11;;;;;;;69.85;32.17;;;;;;;11.69;100.00;101589.22;5078640;28;20033;-48
2022/10/28 01:58:38;;;;;;;69.32;31.88;;;;;;;11.66;100.00;101590.84;5078627;28;20422;-47
2022/10/28 02:01:06;;;;;;;67.22;31.77;;;;;;;11.63;100.00;101585.56;5078227;28;20039;-50
2022/10/28 02:03:31;;;;;;;59.30;30.35;;;;;;;11.60;100.00;101581.16;5078454;28;20031;-50
2022/10/28 02:06:01;;;;;;;69.05;31.05;;;;;;;11.57;100.00;101583.63;5078669;28;20024;-46
2022/10/28 02:08:48;;;;;;;73.32;32.25;;;;;;;11.59;100.00;101578.53;5075723;28;20104;-51
2022/10/28 02:11:25;;;;;;;62.53;32.15;;;;;;;11.59;100.00;101589.72;5075311;28;20058;-49
2022/10/28 02:14:05;;;;;;;73.95;31.45;;;;;;;11.52;100.00;101583.44;5075271;28;20040;-50
2022/10/28 02:16:47;;;;;;;60.53;29.30;;;;;;;11.51;100.00;101580.81;5074699;28;20032;-46
2022/10/28 02:19:34;;;;;;;52.90;27.60;;;;;;;11.40;100.00;101574.38;5075208;28;20021;-47
2022/10/28 02:22:23;;;;;;;61.45;27.98;;;;;;;11.36;100.00;101579.41;5074953;28;20027;-49
2022/10/28 02:24:48;;;;;;;55.05;27.48;;;;;;;11.43;100.00;101577.94;5075121;28;20029;-50
2022/10/28 02:27:20;;;;;;;54.20;27.07;;;;;;;11.37;100.00;101588.03;5075642;28;20021;-46
2022/10/28 02:30:15;;;;;;;56.53;26.88;;;;;;;11.31;100.00;101588.69;5074639;28;20324;-48
2022/10/28 02:32:45;;;;;;;55.67;27.77;;;;;;;11.27;100.00;101585.91;5072468;28;20044;-47
2022/10/28 02:35:16;;;;;;;59.13;28.40;;;;;;;11.31;100.00;101580.03;5074871;28;20034;-48
2022/10/28 02:37:45;;;;;;;61.67;30.05;;;;;;;11.38;100.00;101586.34;5074542;28;20031;-47
2022/10/28 02:40:14;;;;;;;65.47;28.73;;;;;;;11.45;100.00;101570.25;5074730;28;20207;-47
2022/10/28 02:42:47;;;;;;;54.78;27.58;;;;;;;11.40;100.00;101569.19;5074109;28;20472;-50
2022/10/28 02:45:17;;;;;;;53.22;25.10;;;;;;;11.31;100.00;101567.16;5074393;28;20041;-46
2022/10/28 02:47:50;;;;;;;56.33;26.88;;;;;;;11.38;100.00;101573.44;5074580;28;20103;-47
2022/10/28 02:50:20;;;;;;;57.78;27.05;;;;;;;11.32;100.00;101576.66;5074214;28;20021;-46
2022/10/28 02:52:50;;;;;;;57.53;27.20;;;;;;;11.35;100.00;101576.78;5074479;28;20020;-47
2022/10/28 02:55:19;;;;;;;59.92;26.70;;;;;;;11.28;100.00;101580.81;5074802;28;20131;-47
2022/10/28 02:57:47;;;;;;;48.25;26.70;;;;;;;11.22;100.00;101572.84;5074034;28;20031;-46
2022/10/28 03:00:16;;;;;;;49.85;26.83;;;;;;;11.27;100.00;101578.19;5074210;28;20024;-46
2022/10/28 03:02:42;;;;;;;56.17;25.38;;;;;;;11.25;100.00;101557.47;5074525;28;20028;-50
2022/10/28 03:05:08;;;;;;;46.80;24.77;;;;;;;11.16;100.00;101567.44;5074010;28;20012;-46
2022/10/28 03:07:33;;;;;;;50.92;24.67;;;;;;;11.16;100.00;101570.03;5074269;28;20036;-46
2022/10/28 03:09:58;;;;;;;52.45;26.23;;;;;;;11.14;100.00;101563.91;5074412;28;20021;-47
2022/10/28 03:12:23;;;;;;;54.83;25.98;;;;;;;11.16;100.00;101565.75;5073484;28;20042;-46
2022/10/28 03:14:49;;;;;;;56.63;25.77;;;;;;;11.14;100.00;101567.41;5073925;28;20119;-50
2022/10/28 03:17:14;;;;;;;54.78;25.83;;;;;;;11.16;100.00;101570.91;5074422;28;20040;-48
2022/10/28 03:19:39;;;;;;;53.38;24.23;;;;;;;11.09;100.00;101565.44;5073232;28;20082;-50
2022/10/28 03:22:04;;;;;;;48.92;22.92;;;;;;;10.99;100.00;101559.94;5073968;28;20028;-49
2022/10/28 03:24:30;;;;;;;49.00;23.50;;;;;;;10.97;100.00;101563.28;5074021;28;20024;-48
2022/10/28 03:26:55;;;;;;;39.00;22.13;;;;;;;10.92;100.00;101560.50;5073443;28;20426;-47
2022/10/28 03:29:21;;;;;;;47.63;24.73;;;;;;;10.93;100.00;101566.56;5073726;28;20028;-49
2022/10/28 03:31:46;;;;;;;53.50;25.20;;;;;;;10.96;100.00;101561.50;5073289;28;20060;-46
2022/10/28 03:34:11;;;;;;;51.67;24.83;;;;;;;10.94;100.00;101563.16;5073480;28;20560;-47
2022/10/28 03:36:36;;;;;;;58.35;26.52;;;;;;;10.99;100.00;101559.06;5073783;28;20039;-48
2022/10/28 03:39:02;;;;;;;54.22;25.67;;;;;;;10.96;100.00;101561.50;5073318;28;20036;-50
2022/10/28 03:41:27;;;;;;;56.35;26.42;;;;;;;10.97;100.00;101563.28;5073466;28;20055;-47
2022/10/28 03:43:52;;;;;;;50.85;24.48;;;;;;;11.00;100.00;101553.97;5073455;28;20044;-46
2022/10/28 03:46:18;;;;;;;53.67;25.42;;;;;;;10.93;100.00;101557.09;5073146;28;20028;-48
2022/10/28 03:48:43;;;;;;;49.40;24.38;;;;;;;10.93;100.00;101557.09;5073381;28;20066;-48
2022/10/28 03:51:08;;;;;;;53.33;25.00;;;;;;;10.94;100.00;101560.59;5073687;28;20885;-49
2022/10/28 03:53:33;;;;;;;52.92;25.05;;;;;;;10.97;100.00;101558.09;5072837;28;20029;-50
2022/10/28 03:56:00;;;;;;;51.47;24.55;;;;;;;10.92;100.00;101554.47;5073248;28;20432;-48
2022/10/28 03:58:26;;;;;;;46.88;22.30;;;;;;;10.85;100.00;101554.22;5073346;28;20020;-49
2022/10/28 04:00:52;;;;;;;56.13;24.40;;;;;;;10.92;100.00;101557.91;5072705;28;20034;-48
2022/10/28 04:03:19;;;;;;;53.15;24.85;;;;;;;10.88;100.00;101553.47;5073256;28;20121;-49
2022/10/28 04:05:47;;;;;;;51.85;24.30;;;;;;;10.86;100.00;101549.97;5073096;28;20503;-46
2022/10/28 04:08:12;;;;;;;45.50;23.75;;;;;;;10.85;100.00;101558.50;5072645;28;20515;-47
2022/10/28 04:10:37;;;;;;;51.53;23.35;;;;;;;10.75;100.00;101552.09;5072888;28;20029;-47
2022/10/28 04:13:04;;;;;;;47.28;22.58;;;;;;;10.74;100.00;101557.19;5072977;28;20032;-47
2022/10/28 04:15:30;;;;;;;54.70;22.48;;;;;;;10.71;100.00;101550.22;5072416;28;20029;-48
2022/10/28 04:17:55;;;;;;;50.05;23.45;;;;;;;10.81;100.00;101554.91;5072901;28;20099;-50
2022/10/28 04:20:21;;;;;;;45.92;23.23;;;;;;;10.87;100.00;101552.59;5073215;28;20033;-47
2022/10/28 04:22:46;;;;;;;50.22;22.42;;;;;;;10.76;100.00;101560.72;5072507;28;20434;-48
2022/10/28 04:25:11;;;;;;;50.10;22.77;;;;;;;10.82;100.00;101558.38;5072685;28;20426;-48
2022/10/28 04:27:37;;;;;;;47.75;22.70;;;;;;;10.82;100.00;101559.28;5072771;28;20025;-49
2022/10/28 04:30:03;;;;;;;44.55;21.95;;;;;;;10.75;100.00;101554.66;5072283;28;20111;-47
2022/10/28 04:32:28;;;;;;;51.85;21.80;;;;;;;10.69;100.00;101551.84;5071869;28;20353;-46
2022/10/28 04:34:54;;;;;;;44.97;22.50;;;;;;;10.65;100.00;101555.13;5072958;28;20074;-46
2022/10/28 04:37:19;;;;;;;44.22;22.05;;;;;;;10.65;100.00;101555.13;5072146;28;20028;-47
2022/10/28 04:39:44;;;;;;;50.80;22.23;;;;;;;10.62;100.00;101560.16;5072715;28;20025;-47
2022/10/28 04:42:09;;;;;;;50.17;22.95;;;;;;;10.66;100.00;101557.75;5072129;28;20475;-50
2022/10/28 04:44:35;;;;;;;46.28;22.70;;;;;;;10.63;100.00;101562.78;5072134;28;20044;-46
2022/10/28 04:47:00;;;;;;;47.55;22.70;;;;;;;10.61;100.00;101558.41;5072864;28;20160;-49
2022/10/28 04:49:25;;;;;;;49.53;22.83;;;;;;;10.56;100.00;101557.31;5072245;28;20020;-50
2022/10/28 04:51:50;;;;;;;59.25;22.38;;;;;;;10.57;100.00;101561.66;5072568;28;20032;-48
2022/10/28 04:54:16;;;;;;;51.72;21.88;;;;;;;10.57;100.00;101561.66;5072494;28;20131;-49
2022/10/28 04:56:41;;;;;;;40.63;20.67;;;;;;;10.50;100.00;101556.25;5071914;28;20033;-50
2022/10/28 04:59:06;;;;;;;41.03;20.55;;;;;;;10.50;100.00;101553.69;5072336;28;20028;-48
2022/10/28 05:01:32;;;;;;;43.20;20.98;;;;;;;10.45;100.00;101552.59;5072693;28;20020;-50
2022/10/28 05:03:57;;;;;;;47.60;20.85;;;;;;;10.43;100.00;101553.34;5072128;28;20020;-47
2022/10/28 05:06:22;;;;;;;50.38;20.50;;;;;;;10.40;100.00;101550.66;5072511;28;20422;-46
2022/10/28 05:08:48;;;;;;;48.00;20.70;;;;;;;10.45;100.00;101552.59;5072286;28;20115;-48
2022/10/28 05:11:13;;;;;;;48.35;21.13;;;;;;;10.41;100.00;101550.72;5071973;28;20059;-46
2022/10/28 05:13:38;;;;;;;47.97;20.42;;;;;;;10.38;100.00;101545.47;5072018;28;20033;-50
2022/10/28 05:16:04;;;;;;;40.75;20.85;;;;;;;10.43;100.00;101549.09;5072304;28;20037;-48
2022/10/28 05:18:29;;;;;;;56.05;22.33;;;;;;;10.40;100.00;101554.13;5071937;28;20029;-48
2022/10/28 05:20:55;;;;;;;49.30;21.73;;;;;;;10.42;100.00;101557.66;5072163;28;20016;-46
2022/10/28 05:23:21;;;;;;;50.75;21.27;;;;;;;10.37;100.00;101548.84;5072527;28;20051;-49
2022/10/28 05:25:47;;;;;;;51.03;21.98;;;;;;;10.38;100.00;101555.75;5071776;28;20103;-47
2022/10/28 05:28:13;;;;;;;43.00;20.33;;;;;;;10.36;100.00;101554.81;5072027;28;20029;-46
2022/10/28 05:30:38;;;;;;;48.10;21.58;;;;;;;10.35;100.00;101545.28;5072331;28;20023;-48
2022/10/28 05:33:03;;;;;;;46.33;22.60;;;;;;;10.45;100.00;101537.16;5071729;28;20380;-47
2022/10/28 05:35:29;;;;;;;44.03;21.13;;;;;;;10.37;100.00;101538.53;5072093;28;20104;-50
2022/10/28 05:37:54;;;;;;;52.70;23.55;;;;;;;10.42;100.00;101537.03;5072256;28;20024;-47
2022/10/28 05:40:20;;;;;;;50.95;22.50;;;;;;;10.34;100.00;101539.25;5071763;28;20496;-47
2022/10/28 05:42:45;;;;;;;49.60;22.92;;;;;;;10.38;100.00;101536.03;5071734;28;20488;-46
2022/10/28 05:45:11;;;;;;;50.00;23.30;;;;;;;10.41;100.00;101534.41;5075039;28;20064;-48
2022/10/28 05:47:47;;;;;;;46.40;22.05;;;;;;;10.36;100.00;101542.78;5075233;28;20028;-47
2022/10/28 05:50:15;;;;;;;55.78;22.02;;;;;;;10.32;100.00;101547.75;5075963;28;20028;-48
2022/10/28 05:52:46;;;;;;;46.47;21.45;;;;;;;10.30;100.00;101552.84;5074998;28;20039;-47
2022/10/28 05:55:11;;;;;;;48.10;22.80;;;;;;;10.30;100.00;101546.78;5075521;28;20032;-48
2022/10/28 05:57:36;;;;;;;50.63;22.23;;;;;;;10.30;100.00;101541.63;5075556;28;20029;-47
2022/10/28 06:00:03;;;;;;;51.90;21.92;;;;;;;10.27;100.00;101536.34;5075245;28;20439;-47
2022/10/28 06:02:28;;;;;;;53.40;21.45;;;;;;;10.27;100.00;101542.38;5075409;28;20051;-47
2022/10/28 06:04:53;;;;;;;47.92;21.67;;;;;;;10.28;100.00;101543.28;5075472;28;20024;-46
2022/10/28 06:07:18;;;;;;;44.03;21.50;;;;;;;10.26;100.00;101537.16;5075199;28;20052;-47
2022/10/28 06:09:44;;;;;;;49.88;21.58;;;;;;;10.19;100.00;101546.34;5075187;28;20077;-46
2022/10/28 06:12:09;;;;;;;45.58;22.42;;;;;;;10.27;100.00;101551.81;5075324;28;20587;-46
2022/10/28 06:14:34;;;;;;;50.13;22.88;;;;;;;10.36;100.00;101547.94;5074890;28;20025;-47
2022/10/28 06:16:59;;;;;;;55.42;23.83;;;;;;;10.42;100.00;101552.50;5075090;28;20361;-47
2022/10/28 06:19:25;;;;;;;60.63;25.77;;;;;;;10.49;100.00;101549.34;5075097;28;20115;-47
2022/10/28 06:21:50;;;;;;;50.35;22.88;;;;;;;10.35;100.00;101553.00;5074653;28;20024;-46
2022/10/28 06:24:15;;;;;;;50.75;23.48;;;;;;;10.44;100.00;101560.28;5075014;28;20029;-47
2022/10/28 06:26:42;;;;;;;52.17;21.35;;;;;;;10.32;100.00;101550.31;5074948;28;20352;-47
2022/10/28 06:29:09;;;;;;;60.70;28.98;;;;;;;10.31;100.00;101558.84;5074758;28;20040;-48
2022/10/28 06:31:38;;;;;;;57.00;29.65;;;;;;;10.35;100.00;101553.00;5074767;28;20047;-47
2022/10/28 06:34:04;;;;;;;62.58;24.60;;;;;;;10.37;100.00;101554.00;5075031;28;20080;-49
2022/10/28 06:36:29;;;;;;;50.33;21.08;;;;;;;10.33;100.00;101554.66;5074207;28;20021;-46
2022/10/28 06:38:55;;;;;;;42.55;21.02;;;;;;;10.32;100.00;101561.50;5074627;28;20027;-50
2022/10/28 06:41:20;;;;;;;53.75;22.45;;;;;;;10.41;100.00;101552.44;5075139;28;20377;-48
2022/10/28 06:43:45;;;;;;;47.58;21.23;;;;;;;10.40;100.00;101554.13;5073999;28;20107;-46
2022/10/28 06:46:12;;;;;;;57.80;22.83;;;;;;;10.44;100.00;101548.25;5074927;28;20048;-46
2022/10/28 06:48:37;;;;;;;62.75;22.23;;;;;;;10.49;100.00;101551.03;5074523;28;20041;-45
2022/10/28 06:51:02;;;;;;;48.80;22.05;;;;;;;10.51;100.00;101554.56;5073930;28;20025;-46
2022/10/28 06:53:28;;;;;;;55.47;23.35;;;;;;;10.59;100.00;101549.69;5074592;28;20030;-49
2022/10/28 06:55:55;;;;;;;58.47;24.80;;;;;;;10.69;100.00;101546.69;5073529;28;20082;-50
2022/10/28 06:58:21;;;;;;;54.35;24.40;;;;;;;10.74;100.00;101546.88;5074655;28;20035;-47
2022/10/28 07:00:46;;;;;;;56.55;23.67;;;;;;;10.69;100.00;101547.59;5074525;28;20480;-46
2022/10/28 07:03:11;;;;;;;56.08;22.90;;;;;;;10.74;100.00;101555.47;5074103;28;20079;-47
2022/10/28 07:05:37;;;;;;;52.47;22.02;;;;;;;10.81;100.00;101552.34;5074321;28;20057;-50
2022/10/28 07:08:03;;;;;;;56.70;23.70;;;;;;;10.86;100.00;101553.41;5074331;28;20032;-47
2022/10/28 07:10:28;;;;;;;67.47;24.77;;;;;;;10.97;100.00;101555.53;5073265;28;20515;-48
2022/10/28 07:12:53;;;;;;;57.88;24.55;;;;;;;11.11;100.00;101556.94;5074210;28;20066;-48
2022/10/28 07:15:19;;;;;;;48.47;24.23;;;;;;;11.18;100.00;101560.63;5074429;28;20074;-48
2022/10/28 07:17:50;;;;;;;64.15;26.83;;;;;;;11.40;100.00;101559.78;5073767;28;20048;-47
2022/10/28 07:20:15;;;;;;;61.03;26.88;;;;;;;11.46;100.00;101554.81;5074091;28;20032;-47
2022/10/28 07:22:40;;;;;;;57.22;26.45;;;;;;;11.60;100.00;101554.47;5073926;28;20029;-46
2022/10/28 07:25:06;;;;;;;58.60;25.83;;;;;;;11.64;100.00;101553.75;5073602;28;20486;-50
2022/10/28 07:27:31;;;;;;;58.67;25.42;;;;;;;11.78;100.00;101562.88;5073833;28;20033;-47
2022/10/28 07:29:56;;;;;;;72.15;26.38;;;;;;;11.95;100.00;101567.78;5074128;28;20025;-47
2022/10/28 07:32:22;;;;;;;56.00;25.00;;;;;;;12.03;100.00;101563.78;5073471;28;20082;-47
2022/10/28 07:34:47;;;;;;;56.53;24.55;;;;;;;12.27;100.00;101568.06;5073555;28;20063;-52
2022/10/28 07:37:12;;;;;;;65.15;24.70;;;;;;;12.43;100.00;101575.47;5073752;28;20024;-50
2022/10/28 07:39:38;;;;;;;54.13;24.10;;;;;;;12.58;100.00;101567.38;5073091;28;20472;-49
2022/10/28 07:42:03;;;;;;;58.85;24.30;;;;;;;12.79;100.00;101567.16;5073714;28;20078;-50
2022/10/28 07:44:28;;;;;;;55.88;22.80;;;;;;;12.98;100.00;101567.78;5073595;28;20617;-52
2022/10/28 07:46:54;;;;;;;58.95;22.55;;;;;;;13.16;100.00;101570.91;5073072;28;20028;-48
2022/10/28 07:49:19;;;;;;;51.05;20.17;;;;;;;13.45;100.00;101563.19;5073826;28;20016;-52
2022/10/28 07:51:44;;;;;;;45.20;20.90;;;;;;;13.64;100.00;101566.31;5073556;28;20047;-49
2022/10/28 07:54:10;;;;;;;48.08;18.67;;;;;;;13.83;100.00;101553.03;5072585;28;20024;-49
2022/10/28 07:56:35;;;;;;;43.35;18.73;;;;;;;14.02;100.00;101556.13;5073507;28;20101;-50
2022/10/28 07:59:00;;;;;;;52.80;18.35;;;;;;;14.18;100.00;101547.03;5073520;28;20056;-50
2022/10/28 08:01:25;;;;;;;55.13;18.98;;;;;;;14.33;100.00;101537.06;5072774;28;20074;-50
2022/10/28 08:03:51;;;;;;;54.05;19.33;;;;;;;14.49;100.00;101551.28;5073384;28;20039;-50
2022/10/28 08:06:18;;;;;;;47.05;19.02;;;;;;;14.65;100.00;101549.97;5071924;28;20021;-48
2022/10/28 08:08:46;;;;;;;52.90;18.95;;;;;;;14.85;100.00;101564.25;5072921;28;20097;-49
2022/10/28 08:11:17;;;;;;;;;;;;;;;14.87;100.00;101566.03;5073856;28;20044;-50
2022/10/28 08:13:42;;;;;;;47.00;18.60;;;;;;;15.19;100.00;101555.50;5072603;28;19912;-49
2022/10/28 08:16:08;;;;;;;41.22;17.20;;;;;;;15.35;100.00;101556.75;5072968;28;20031;-52
2022/10/28 08:18:34;;;;;;;51.60;16.85;;;;;;;15.48;100.00;101563.94;5073020;28;20051;-52
2022/10/28 08:21:01;;;;;;;51.33;18.20;;;;;;;15.55;100.00;101566.66;5072484;28;20380;-50
2022/10/28 08:23:27;;;;;;;53.05;16.30;;;;;;;15.63;100.00;101572.88;5072734;28;20060;-49
2022/10/28 08:25:52;;;;;;;43.25;15.48;;;;;;;15.68;100.00;101579.03;5073200;28;20059;-52
2022/10/28 08:28:18;;;;;;;38.28;15.20;;;;;;;15.73;100.00;101586.94;5072470;28;20165;-49
2022/10/28 08:30:45;;;;;;;40.22;14.18;;;;;;;15.78;100.00;101586.19;5072743;28;20035;-50
2022/10/28 08:33:11;;;;;;;38.00;14.65;;;;;;;15.79;100.00;101587.94;5072987;28;20099;-50
2022/10/28 08:35:36;;;;;;;38.42;14.52;;;;;;;15.82;100.00;101581.09;5072084;28;20175;-48
2022/10/28 08:38:02;;;;;;;42.67;13.15;;;;;;;15.85;100.00;101583.75;5072825;28;20048;-50
2022/10/28 08:40:38;;;;;;;48.40;15.05;;;;;;;15.92;100.00;101577.81;5072864;28;20104;-50
2022/10/28 08:43:42;;;;;;;43.35;14.27;;;;;;;16.06;100.00;101584.16;5072091;28;20024;-48
2022/10/28 08:46:26;;;;;;;38.80;14.52;;;;;;;16.25;100.00;101587.09;5005832;28;20048;-51
2022/10/28 08:48:51;;;;;;;42.75;13.43;;;;;;;16.43;100.00;101573.53;5072397;28;20056;-50
2022/10/28 08:51:24;;;;;;;35.38;13.38;;;;;;;16.60;100.00;101573.81;5072668;28;20106;-51
2022/10/28 08:54:05;;;;;;;38.97;13.20;;;;;;;16.85;100.00;101566.38;5072745;28;20040;-51
2022/10/28 08:56:36;;;;;;;35.13;12.60;;;;;;;17.15;100.00;101562.53;5072105;28;20032;-51
2022/10/28 08:59:05;;;;;;;41.67;13.20;;;;;;;17.45;95.44;101572.47;5072611;28;20029;-51
2022/10/28 09:01:49;;;;;;;48.53;12.93;;;;;;;17.67;95.54;101573.59;5072704;28;20024;-50
2022/10/28 09:04:38;;;;;;;45.88;13.18;;;;;;;17.80;95.50;101576.38;5072027;28;20056;-51
2022/10/28 09:07:04;;;;;;;36.67;13.38;;;;;;;17.87;92.84;101580.78;5072402;28;20032;-51
2022/10/28 09:09:30;;;;;;;36.17;11.52;;;;;;;17.92;92.56;101585.19;5072081;28;20021;-51
2022/10/28 09:12:01;;;;;;;37.47;12.00;;;;;;;18.00;90.38;101582.69;5072335;28;20028;-51
2022/10/28 09:14:47;;;;;;;37.35;11.68;;;;;;;18.12;89.39;101586.31;5072232;28;20391;-51
2022/10/28 09:17:19;;;;;;;37.83;11.60;;;;;;;18.24;89.18;101578.59;5072039;28;20090;-51
2022/10/28 09:19:49;;;;;;;38.35;12.00;;;;;;;18.32;87.56;101592.59;5076399;28;20032;-50
2022/10/28 09:22:28;;;;;;;37.38;11.75;;;;;;;18.56;89.09;101580.59;5076677;28;20059;-50
2022/10/28 09:25:05;;;;;;;41.00;11.75;;;;;;;18.84;86.95;101588.66;5075934;28;20074;-50
2022/10/28 09:28:00;;;;;;;39.70;11.90;;;;;;;19.11;88.23;101588.00;5076266;28;20388;-50
2022/10/28 09:30:52;;;;;;;31.33;10.80;;;;;;;19.47;84.79;101585.56;5076471;28;20029;-51
2022/10/28 09:33:33;;;;;;;44.30;11.20;;;;;;;19.67;82.81;101577.81;5075935;28;20471;-50
2022/10/28 09:36:00;;;;;;;38.42;11.32;;;;;;;19.68;81.34;101580.41;5076145;28;20033;-51
2022/10/28 09:38:39;;;;;;;35.17;10.50;;;;;;;19.61;81.39;101589.09;5075190;28;20083;-51
2022/10/28 09:41:11;;;;;;;36.70;11.48;;;;;;;19.44;80.88;101596.00;5075925;28;20118;-51
2022/10/28 09:43:43;;;;;;;45.50;11.05;;;;;;;19.32;81.87;101600.31;5075670;28;20039;-51
2022/10/28 09:46:15;;;;;;;31.02;10.75;;;;;;;19.29;81.32;101602.91;5075269;28;20031;-51
2022/10/28 09:48:50;;;;;;;39.53;11.00;;;;;;;19.47;81.62;101596.91;5075846;28;20418;-51
2022/10/28 09:51:46;;;;;;;30.48;10.43;;;;;;;19.77;80.78;101597.00;5076126;28;20029;-51
2022/10/28 09:54:12;;;;;;;32.63;10.27;;;;;;;19.97;77.11;101589.25;5075740;28;20122;-51
2022/10/28 09:56:39;;;;;;;40.58;11.20;;;;;;;20.07;76.86;101598.88;5075654;28;20279;-51
2022/10/28 09:59:04;;;;;;;42.42;9.93;;;;;;;20.23;75.52;101600.66;5075157;28;20021;-50
2022/10/28 10:01:34;;;;;;;32.75;10.10;;;;;;;20.49;75.36;101596.31;5075307;28;20028;-51
2022/10/28 10:03:59;;;;;;;33.05;9.82;;;;;;;20.66;73.72;101599.81;5075700;28;20027;-51
2022/10/28 10:06:31;;;;;;;33.90;9.98;;;;;;;20.75;72.07;101598.97;5074901;28;20025;-51
2022/10/28 10:08:58;;;;;;;37.70;9.85;;;;;;;20.88;72.11;101598.06;5075372;28;20020;-50
2022/10/28 10:11:29;;;;;;;37.50;10.23;;;;;;;21.05;71.54;101591.94;5075626;28;20025;-50
2022/10/28 10:13:57;;;;;;;29.17;9.90;;;;;;;20.92;70.86;101591.09;5074828;28;20427;-51
2022/10/28 10:16:36;;;;;;;31.67;9.93;;;;;;;20.94;70.18;101593.69;5075481;28;20090;-51
2022/10/28 10:19:04;;;;;;;42.17;10.98;;;;;;;21.09;69.30;101587.56;5075497;28;20032;-51
2022/10/28 10:21:49;;;;;;;39.47;10.55;;;;;;;21.19;71.99;101599.78;5074482;28;20075;-50
2022/10/28 10:24:29;;;;;;;37.92;9.95;;;;;;;21.13;69.92;101589.28;5075336;28;20024;-51
2022/10/28 10:26:56;;;;;;;40.83;10.70;;;;;;;21.30;69.09;101584.00;5074853;28;20036;-51
2022/10/28 10:29:23;;;;;;;52.28;10.55;;;;;;;21.38;67.13;101585.72;5074286;28;20055;-51
2022/10/28 10:32:03;;;;;;;56.47;10.87;;;;;;;21.40;67.87;101598.81;5075275;28;20024;-51
2022/10/28 10:34:29;;;;;;;45.58;10.38;;;;;;;21.41;67.57;101590.09;5074281;28;20389;-51
2022/10/28 10:36:55;;;;;;;41.45;9.75;;;;;;;21.30;67.80;101587.47;5074767;28;20059;-52
2022/10/28 10:39:25;;;;;;;36.20;9.32;;;;;;;21.25;67.03;101578.75;5075243;28;20029;-51
2022/10/28 10:41:53;;;;;;;45.65;11.18;;;;;;;21.39;67.30;101581.34;5074600;28;20082;-49
2022/10/28 10:44:19;;;;;;;33.70;8.82;;;;;;;21.52;67.51;101576.91;5074789;28;20076;-51
2022/10/28 10:46:44;;;;;;;45.00;10.93;;;;;;;21.55;67.04;101569.09;5074864;28;20052;-51
2022/10/28 10:49:14;;;;;;;37.03;9.98;;;;;;;21.65;66.18;101575.16;5074162;28;20024;-51
2022/10/28 10:52:01;;;;;;;47.20;10.40;;;;;;;21.86;66.11;101567.16;5074900;28;20017;-51
2022/10/28 10:54:30;;;;;;;36.83;9.45;;;;;;;21.94;64.88;101559.25;5074725;28;20021;-51
2022/10/28 10:57:26;;;;;;;42.10;9.63;;;;;;;22.04;66.18;101560.94;5073897;28;20024;-51
2022/10/28 10:59:53;;;;;;;49.67;10.05;;;;;;;22.07;64.85;101564.44;5053654;28;20036;-51
2022/10/28 11:02:35;;;;;;;44.13;9.98;;;;;;;22.21;64.71;101578.31;5074346;28;20031;-51
2022/10/28 11:05:06;;;;;;;39.33;9.27;;;;;;;22.41;62.54;101577.31;5074467;28;20028;-51
2022/10/28 11:07:32;;;;;;;36.40;9.10;;;;;;;22.35;62.01;101576.47;5074393;28;20032;-51
2022/10/28 11:09:58;;;;;;;47.58;9.32;;;;;;;22.74;61.67;101570.91;5073879;28;20426;-51
2022/10/28 11:12:34;;;;;;;35.22;9.70;;;;;;;22.68;61.80;101577.09;5074273;28;20039;-53
2022/10/28 11:15:00;;;;;;;42.13;9.33;;;;;;;22.81;59.35;101566.44;5074369;28;20032;-52